Time;durP1;ratioP1;P1;durP2;ratioP2;P2;SDS_P1;SDS_P2;PMS_P1;PMS_P2;Temp;Humidity;BMP_temperature;BMP_pressure;BME280_temperature;BME280_humidity;BME280_pressure;Samples;Min_cycle;Max_cycle;Signal;HPM_P1;HPM_P2
2020/12/23 00:02:11;;;;;;;14.35;8.82;;;11.80;88.60;;;;;;5135402;27;20196;-74
2020/12/23 00:04:36;;;;;;;10.32;8.80;;;11.70;88.50;;;;;;5135166;27;20058;-74
2020/12/23 00:07:06;;;;;;;11.25;8.43;;;11.70;88.60;;;;;;5135104;27;20022;-73
2020/12/23 00:09:32;;;;;;;12.48;9.25;;;11.70;88.60;;;;;;5134917;27;20023;-74
2020/12/23 00:11:57;;;;;;;11.23;9.05;;;11.80;88.70;;;;;;5134916;27;20039;-74
2020/12/23 00:14:23;;;;;;;13.40;9.23;;;11.70;88.60;;;;;;5133740;27;20100;-73
2020/12/23 00:16:49;;;;;;;11.40;9.48;;;11.80;88.70;;;;;;5133824;27;20035;-73
2020/12/23 00:19:15;;;;;;;12.02;9.02;;;11.80;88.60;;;;;;5133523;27;20049;-74
2020/12/23 00:21:41;;;;;;;12.27;9.45;;;11.70;88.60;;;;;;5135262;27;20035;-74
2020/12/23 00:24:07;;;;;;;13.45;9.98;;;11.80;88.60;;;;;;5133511;27;20026;-73
2020/12/23 00:26:33;;;;;;;11.30;9.57;;;11.80;88.60;;;;;;5134714;27;20098;-74
2020/12/23 00:28:58;;;;;;;13.68;10.23;;;11.70;88.60;;;;;;5134655;27;20027;-73
2020/12/23 00:31:24;;;;;;;12.88;9.63;;;11.80;88.70;;;;;;5133554;27;20030;-74
2020/12/23 00:33:52;;;;;;;12.93;9.82;;;11.80;88.60;;;;;;5133638;27;20019;-73
2020/12/23 00:36:18;;;;;;;15.10;10.85;;;11.80;88.70;;;;;;5132826;27;20392;-73
2020/12/23 00:38:47;;;;;;;14.95;10.20;;;11.80;88.70;;;;;;5134897;27;20031;-73
2020/12/23 00:41:17;;;;;;;15.32;10.82;;;11.80;88.70;;;;;;5133749;27;20062;-73
2020/12/23 00:43:43;;;;;;;14.90;10.68;;;11.80;88.70;;;;;;5133537;27;20126;-74
2020/12/23 00:46:13;;;;;;;15.30;10.40;;;11.80;88.70;;;;;;5133169;27;20081;-74
2020/12/23 00:48:40;;;;;;;14.48;10.65;;;11.80;88.70;;;;;;5133063;27;20023;-74
2020/12/23 00:51:12;;;;;;;17.02;10.60;;;11.80;88.70;;;;;;5134220;27;20383;-73
2020/12/23 00:53:38;;;;;;;16.83;11.85;;;11.80;88.70;;;;;;5140657;27;20074;-74
2020/12/23 00:56:04;;;;;;;16.30;11.45;;;11.80;88.70;;;;;;5154939;27;20071;-74
2020/12/23 00:58:30;;;;;;;17.08;11.93;;;11.80;88.70;;;;;;5154863;27;20060;-74
2020/12/23 01:00:56;;;;;;;19.90;11.80;;;11.80;88.70;;;;;;5136274;27;20030;-74
2020/12/23 01:03:22;;;;;;;17.70;11.50;;;11.80;88.80;;;;;;5155078;27;20027;-73
2020/12/23 01:05:47;;;;;;;15.60;11.52;;;11.80;88.70;;;;;;5136285;27;20121;-74
2020/12/23 01:08:13;;;;;;;17.55;12.35;;;11.80;88.80;;;;;;5136487;27;20355;-74
2020/12/23 01:10:39;;;;;;;18.45;11.80;;;11.80;88.80;;;;;;5136414;27;20113;-73
2020/12/23 01:13:04;;;;;;;20.30;12.38;;;11.80;88.80;;;;;;5154982;27;20031;-74
2020/12/23 01:15:30;;;;;;;16.85;12.05;;;11.80;88.80;;;;;;5154921;27;20076;-73
2020/12/23 01:17:55;;;;;;;17.52;11.88;;;11.80;88.80;;;;;;5136245;27;20552;-73
2020/12/23 01:20:21;;;;;;;17.95;11.95;;;11.80;88.80;;;;;;5136213;27;20027;-73
2020/12/23 01:22:47;;;;;;;17.10;11.52;;;11.80;88.80;;;;;;5136231;27;20537;-74
2020/12/23 01:25:12;;;;;;;21.15;12.88;;;11.80;88.80;;;;;;5154723;27;20031;-74
2020/12/23 01:27:38;;;;;;;17.88;12.05;;;11.80;88.70;;;;;;5155280;27;20071;-73
2020/12/23 01:30:05;;;;;;;20.40;12.77;;;11.80;88.70;;;;;;5136219;27;20029;-73
2020/12/23 01:32:30;;;;;;;19.98;12.23;;;11.80;88.80;;;;;;5135930;27;20038;-74
2020/12/23 01:34:56;;;;;;;18.05;12.75;;;11.80;88.80;;;;;;5136122;27;20023;-73
2020/12/23 01:37:21;;;;;;;19.20;12.93;;;11.80;89.40;;;;;;5154879;27;20027;-73
2020/12/23 01:39:47;;;;;;;19.55;12.80;;;11.80;88.80;;;;;;5136091;27;20023;-74
2020/12/23 01:42:13;;;;;;;22.65;12.75;;;11.80;88.80;;;;;;5135628;27;20027;-74
2020/12/23 01:44:38;;;;;;;20.23;12.57;;;11.80;88.80;;;;;;5135795;27;20045;-74
2020/12/23 01:47:14;;;;;;;20.42;12.52;;;11.80;88.80;;;;;;5156303;27;20026;-73
2020/12/23 01:49:40;;;;;;;19.30;12.40;;;11.80;88.80;;;;;;5139865;27;20015;-73
2020/12/23 01:52:06;;;;;;;18.75;12.55;;;11.80;88.80;;;;;;5158805;27;20031;-74
2020/12/23 01:54:32;;;;;;;21.23;12.27;;;11.80;88.80;;;;;;5139541;27;20038;-73
2020/12/23 01:56:58;;;;;;;19.60;12.23;;;11.80;88.80;;;;;;5139578;27;20031;-74
2020/12/23 01:59:24;;;;;;;20.17;12.38;;;11.80;88.80;;;;;;5158369;27;20118;-73
2020/12/23 02:02:07;;;;;;;20.05;12.93;;;11.80;88.80;;;;;;5139556;27;20418;-74
2020/12/23 02:04:33;;;;;;;21.27;12.88;;;11.80;88.90;;;;;;5139573;27;20071;-74
2020/12/23 02:06:58;;;;;;;19.33;13.18;;;11.80;88.80;;;;;;5158333;27;20442;-73
2020/12/23 02:09:28;;;;;;;18.83;13.00;;;11.80;88.80;;;;;;5158068;27;20065;-73
2020/12/23 02:11:54;;;;;;;21.35;12.13;;;11.80;88.80;;;;;;5139331;27;20050;-74
2020/12/23 02:14:19;;;;;;;22.05;12.95;;;11.80;88.80;;;;;;5158015;27;20496;-73
2020/12/23 02:16:45;;;;;;;22.50;13.10;;;11.80;88.90;;;;;;5157805;27;20033;-73
2020/12/23 02:19:13;;;;;;;19.83;12.35;;;11.80;88.90;;;;;;5157788;27;20027;-74
2020/12/23 02:21:39;;;;;;;19.67;11.95;;;11.80;88.90;;;;;;5157660;27;20090;-73
2020/12/23 02:24:05;;;;;;;22.45;13.52;;;11.80;88.90;;;;;;5139506;27;20482;-73
2020/12/23 02:26:31;;;;;;;20.25;12.15;;;11.80;88.90;;;;;;5157636;27;20023;-73
2020/12/23 02:28:56;;;;;;;20.23;12.90;;;11.80;88.90;;;;;;5138972;27;20068;-74
2020/12/23 02:31:22;;;;;;;22.27;12.70;;;11.80;89.00;;;;;;5157897;27;20075;-73
2020/12/23 02:33:48;;;;;;;22.10;13.23;;;11.80;88.90;;;;;;5157882;27;20051;-74
2020/12/23 02:36:14;;;;;;;25.75;13.50;;;11.80;88.90;;;;;;5138859;27;20390;-74
2020/12/23 02:38:40;;;;;;;21.88;12.68;;;11.80;88.90;;;;;;5138948;27;20022;-73
2020/12/23 02:41:05;;;;;;;24.95;12.93;;;11.80;88.90;;;;;;5157342;27;20034;-73
2020/12/23 02:43:31;;;;;;;28.88;14.07;;;11.80;89.00;;;;;;5138728;27;20479;-73
2020/12/23 02:45:56;;;;;;;23.20;13.25;;;11.70;89.00;;;;;;5138919;27;20415;-73
2020/12/23 02:48:23;;;;;;;24.77;13.73;;;11.70;89.00;;;;;;5157503;27;20027;-74
2020/12/23 02:50:49;;;;;;;25.52;12.77;;;11.80;89.10;;;;;;5138712;27;20025;-74
2020/12/23 02:53:15;;;;;;;24.55;13.35;;;11.70;89.00;;;;;;5138554;27;20023;-74
2020/12/23 02:55:41;;;;;;;23.80;13.48;;;11.70;89.00;;;;;;5156976;27;20047;-73
2020/12/23 02:58:06;;;;;;;27.85;13.52;;;11.70;89.00;;;;;;5137966;27;20500;-74
2020/12/23 03:00:32;;;;;;;27.02;14.38;;;11.70;89.00;;;;;;5138420;27;20454;-73
2020/12/23 03:02:58;;;;;;;31.13;14.38;;;11.70;89.10;;;;;;5138556;27;20019;-73
2020/12/23 03:05:23;;;;;;;27.42;14.68;;;11.70;89.10;;;;;;5157397;27;20037;-74
2020/12/23 03:07:49;;;;;;;26.48;13.90;;;11.70;89.10;;;;;;5138305;27;20026;-74
2020/12/23 03:10:15;;;;;;;30.45;13.82;;;11.70;89.20;;;;;;5138269;27;20022;-73
2020/12/23 03:12:40;;;;;;;25.67;14.70;;;11.70;89.20;;;;;;5138632;27;20026;-73
2020/12/23 03:15:06;;;;;;;33.15;14.75;;;11.70;89.20;;;;;;5156942;27;20030;-74
2020/12/23 03:17:31;;;;;;;31.20;13.82;;;11.70;89.20;;;;;;5157281;27;20041;-73
2020/12/23 03:19:57;;;;;;;29.92;14.82;;;11.80;89.20;;;;;;5157144;27;20019;-73
2020/12/23 03:22:23;;;;;;;27.17;14.52;;;11.80;89.20;;;;;;5138127;27;20125;-74
2020/12/23 03:24:49;;;;;;;29.02;15.00;;;11.80;89.20;;;;;;5157122;27;20077;-73
2020/12/23 03:27:15;;;;;;;30.60;14.13;;;11.80;89.10;;;;;;5137941;27;20157;-74
2020/12/23 03:29:40;;;;;;;30.23;14.77;;;11.80;89.20;;;;;;5156630;27;20102;-74
2020/12/23 03:32:06;;;;;;;38.30;15.93;;;11.80;89.10;;;;;;5138026;27;20062;-73
2020/12/23 03:34:31;;;;;;;40.10;15.25;;;11.80;89.10;;;;;;5137776;27;20037;-74
2020/12/23 03:36:57;;;;;;;35.33;14.43;;;11.80;89.20;;;;;;5137890;27;20031;-73
2020/12/23 03:39:23;;;;;;;25.67;13.90;;;11.80;89.30;;;;;;5156437;27;20074;-73
2020/12/23 03:41:48;;;;;;;32.40;14.38;;;11.80;89.30;;;;;;5137387;27;20454;-74
2020/12/23 03:44:14;;;;;;;41.08;15.50;;;11.80;89.30;;;;;;5137220;27;20109;-73
2020/12/23 03:46:40;;;;;;;33.05;15.35;;;11.80;89.30;;;;;;5137551;27;20027;-73
2020/12/23 03:49:05;;;;;;;34.80;14.80;;;11.80;89.30;;;;;;5137695;27;20473;-74
2020/12/23 03:51:31;;;;;;;32.00;14.82;;;11.80;89.30;;;;;;5137458;27;20023;-73
2020/12/23 03:53:57;;;;;;;42.17;15.93;;;11.80;89.60;;;;;;5155640;27;20050;-73
2020/12/23 03:56:22;;;;;;;31.08;14.98;;;11.80;89.40;;;;;;5137183;27;20026;-73
2020/12/23 03:58:48;;;;;;;44.38;16.23;;;11.80;89.40;;;;;;5137140;27;20027;-73
2020/12/23 04:01:13;;;;;;;31.17;15.68;;;11.80;89.40;;;;;;5155556;27;20034;-73
2020/12/23 04:03:39;;;;;;;49.78;15.57;;;11.80;89.40;;;;;;5156187;27;20121;-74
2020/12/23 04:06:05;;;;;;;34.20;15.40;;;11.80;89.40;;;;;;5137168;27;20113;-73
2020/12/23 04:08:30;;;;;;;37.67;14.55;;;11.80;90.00;;;;;;5155960;27;20060;-73
2020/12/23 04:10:56;;;;;;;32.80;14.45;;;11.80;89.40;;;;;;5154690;27;20030;-74
2020/12/23 04:13:22;;;;;;;34.08;14.75;;;11.80;89.40;;;;;;5136912;27;20033;-73
2020/12/23 04:15:47;;;;;;;46.92;15.55;;;11.80;89.50;;;;;;5136757;27;20026;-74
2020/12/23 04:18:13;;;;;;;45.53;14.80;;;11.90;89.50;;;;;;5155287;27;20085;-74
2020/12/23 04:20:41;;;;;;;39.42;15.48;;;11.90;89.50;;;;;;5136636;27;20047;-74
2020/12/23 04:23:12;;;;;;;49.03;15.80;;;11.80;89.40;;;;;;5155322;27;20014;-73
2020/12/23 04:25:37;;;;;;;35.70;15.73;;;11.80;89.50;;;;;;5155153;27;20022;-74
2020/12/23 04:28:03;;;;;;;35.83;15.45;;;11.80;89.50;;;;;;5155051;27;20386;-74
2020/12/23 04:30:29;;;;;;;36.70;15.23;;;11.90;89.60;;;;;;5136383;27;20071;-74
2020/12/23 04:32:55;;;;;;;35.50;14.57;;;11.90;89.60;;;;;;5155120;27;20022;-73
2020/12/23 04:35:20;;;;;;;31.58;15.82;;;11.90;89.60;;;;;;5136492;27;20026;-73
2020/12/23 04:37:46;;;;;;;43.22;14.95;;;11.90;89.50;;;;;;5155070;27;20049;-73
2020/12/23 04:40:12;;;;;;;26.85;14.50;;;11.90;89.60;;;;;;5155035;27;20031;-74
2020/12/23 04:42:38;;;;;;;32.22;13.95;;;11.90;89.50;;;;;;5154718;27;20063;-73
2020/12/23 04:45:05;;;;;;;24.02;13.80;;;11.90;89.50;;;;;;5154705;27;20027;-73
2020/12/23 04:47:32;;;;;;;31.80;14.50;;;11.90;89.50;;;;;;5155168;27;20018;-75
2020/12/23 04:49:58;;;;;;;30.42;13.75;;;11.90;89.50;;;;;;5154721;27;20023;-73
2020/12/23 04:52:33;;;;;;;24.85;13.70;;;11.90;89.50;;;;;;5136105;27;20117;-73
2020/12/23 04:55:04;;;;;;;22.63;12.68;;;11.90;89.60;;;;;;5136143;27;20054;-74
2020/12/23 04:57:30;;;;;;;20.27;12.88;;;12.00;89.70;;;;;;5154752;27;20110;-73
2020/12/23 04:59:56;;;;;;;22.33;12.48;;;11.90;89.60;;;;;;5154784;27;20066;-74
2020/12/23 05:02:22;;;;;;;21.63;12.07;;;11.90;89.70;;;;;;5135996;27;20034;-73
2020/12/23 05:04:48;;;;;;;21.00;12.35;;;11.90;89.60;;;;;;5136155;27;20026;-74
2020/12/23 05:07:19;;;;;;;20.77;12.40;;;12.00;89.70;;;;;;5136184;27;20026;-73
2020/12/23 05:09:47;;;;;;;19.90;11.23;;;12.00;89.70;;;;;;5154603;27;20101;-74
2020/12/23 05:12:13;;;;;;;19.02;10.48;;;12.00;89.70;;;;;;5135915;27;20399;-73
2020/12/23 05:14:40;;;;;;;18.63;10.65;;;12.00;89.70;;;;;;5154717;27;20541;-73
2020/12/23 05:17:06;;;;;;;16.73;11.35;;;12.00;89.80;;;;;;5135994;27;20038;-73
2020/12/23 05:19:32;;;;;;;16.48;11.30;;;12.00;89.80;;;;;;5136180;27;20500;-74
2020/12/23 05:21:59;;;;;;;18.02;11.07;;;12.00;89.80;;;;;;5154053;27;20026;-74
2020/12/23 05:24:26;;;;;;;17.23;10.80;;;12.00;89.80;;;;;;5154682;27;20382;-74
2020/12/23 05:26:57;;;;;;;18.27;10.55;;;12.00;89.80;;;;;;5135964;27;20019;-74
2020/12/23 05:29:23;;;;;;;17.35;10.20;;;12.10;89.90;;;;;;5135967;27;20129;-74
2020/12/23 05:31:49;;;;;;;14.73;9.95;;;12.00;89.80;;;;;;5135990;27;20096;-74
2020/12/23 05:34:15;;;;;;;13.98;9.73;;;12.00;89.80;;;;;;5154502;27;20454;-73
2020/12/23 05:36:41;;;;;;;13.95;8.82;;;12.00;89.90;;;;;;5136029;27;20031;-74
2020/12/23 05:39:08;;;;;;;12.10;8.30;;;12.00;90.00;;;;;;5154457;27;20037;-74
2020/12/23 05:41:35;;;;;;;9.98;7.72;;;12.00;90.00;;;;;;5154477;27;20482;-74
2020/12/23 05:44:02;;;;;;;10.77;7.95;;;12.00;90.00;;;;;;5135608;27;20095;-74
2020/12/23 05:46:27;;;;;;;10.23;7.10;;;12.00;90.00;;;;;;5135877;27;20019;-74
2020/12/23 05:48:53;;;;;;;9.27;7.15;;;12.10;90.00;;;;;;5135785;27;20492;-74
2020/12/23 05:51:19;;;;;;;8.05;6.63;;;12.10;90.00;;;;;;5135820;27;20025;-74
2020/12/23 05:53:45;;;;;;;8.98;7.38;;;12.10;90.00;;;;;;5154158;27;20102;-74
2020/12/23 05:56:11;;;;;;;9.05;6.85;;;12.10;90.00;;;;;;5154298;27;20034;-74
2020/12/23 05:58:39;;;;;;;6.90;6.00;;;12.10;90.10;;;;;;5135995;27;20390;-74
2020/12/23 06:01:06;;;;;;;8.02;6.10;;;12.10;90.10;;;;;;5154233;27;20019;-74
2020/12/23 06:03:55;;;;;;;6.45;5.57;;;12.10;90.10;;;;;;5135740;27;20046;-74
2020/12/23 06:06:31;;;;;;;7.32;5.57;;;12.10;90.10;;;;;;5135572;27;20023;-74
2020/12/23 06:08:59;;;;;;;6.07;5.15;;;12.10;90.10;;;;;;5154214;27;20030;-74
2020/12/23 06:11:44;;;;;;;6.30;5.45;;;12.10;90.10;;;;;;5154253;27;20029;-74
2020/12/23 06:14:13;;;;;;;6.72;5.47;;;12.10;90.10;;;;;;5135642;27;20022;-74
2020/12/23 06:16:41;;;;;;;6.60;5.65;;;12.10;90.10;;;;;;5135555;27;20023;-74
2020/12/23 06:19:08;;;;;;;6.25;5.15;;;12.10;90.20;;;;;;5135390;27;20489;-74
2020/12/23 06:21:35;;;;;;;7.38;5.18;;;12.10;90.20;;;;;;5153948;27;20035;-74
2020/12/23 06:24:02;;;;;;;5.85;5.22;;;12.10;90.20;;;;;;5154040;27;20035;-74
2020/12/23 06:26:30;;;;;;;5.35;4.53;;;12.10;90.20;;;;;;5135465;27;20039;-73
2020/12/23 06:29:01;;;;;;;6.78;4.50;;;12.10;90.20;;;;;;5135487;27;20034;-74
2020/12/23 06:31:29;;;;;;;4.47;4.05;;;12.10;90.20;;;;;;5135587;27;20027;-74
2020/12/23 06:33:56;;;;;;;4.88;4.25;;;12.10;90.30;;;;;;5155645;27;20033;-73
2020/12/23 06:36:34;;;;;;;4.45;4.05;;;12.10;90.30;;;;;;5139130;27;20068;-74
2020/12/23 06:39:18;;;;;;;4.68;4.10;;;12.10;90.30;;;;;;5139616;27;20134;-74
2020/12/23 06:42:05;;;;;;;4.32;3.92;;;12.10;90.30;;;;;;5157897;27;20031;-74
2020/12/23 06:44:58;;;;;;;4.90;4.40;;;12.10;90.30;;;;;;5129115;27;20423;-73
2020/12/23 06:47:26;;;;;;;4.63;4.00;;;12.10;90.30;;;;;;5136322;27;20122;-74
2020/12/23 06:49:52;;;;;;;4.55;4.13;;;12.10;90.30;;;;;;5138932;27;20068;-73
2020/12/23 06:52:21;;;;;;;4.70;4.30;;;12.10;90.30;;;;;;5138747;27;20508;-74
2020/12/23 06:55:03;;;;;;;5.25;4.75;;;12.10;90.30;;;;;;5138649;27;20047;-74
2020/12/23 06:57:38;;;;;;;5.68;4.90;;;12.20;90.40;;;;;;5138652;27;20377;-74
2020/12/23 07:00:07;;;;;;;5.97;5.07;;;12.20;90.40;;;;;;5157271;27;20033;-74
2020/12/23 07:02:47;;;;;;;5.32;4.82;;;12.20;90.40;;;;;;5138625;27;20125;-74
2020/12/23 07:05:30;;;;;;;5.80;4.78;;;12.20;90.40;;;;;;5138722;27;20025;-73
2020/12/23 07:08:00;;;;;;;;;;;12.20;90.40;;;;;;5139240;27;20547;-74
2020/12/23 07:10:29;;;;;;;6.88;5.22;;;12.20;90.40;;;;;;5138705;27;19917;-74
2020/12/23 07:13:08;;;;;;;6.95;6.20;;;12.20;90.40;;;;;;5138424;27;20031;-73
2020/12/23 07:15:39;;;;;;;6.72;6.03;;;12.20;90.50;;;;;;5138666;27;20054;-73
2020/12/23 07:18:06;;;;;;;6.55;5.88;;;12.30;90.50;;;;;;5138503;27;20381;-73
2020/12/23 07:20:44;;;;;;;7.10;6.40;;;12.30;90.80;;;;;;5157180;27;20039;-73
2020/12/23 07:23:12;;;;;;;7.20;6.50;;;12.30;90.50;;;;;;5157081;27;20026;-73
2020/12/23 07:25:44;;;;;;;6.40;5.78;;;12.30;90.50;;;;;;5156764;27;20049;-73
2020/12/23 07:28:11;;;;;;;6.50;5.80;;;12.30;90.50;;;;;;5156823;27;20026;-73
2020/12/23 07:30:39;;;;;;;7.82;5.97;;;12.40;90.50;;;;;;5138106;27;20152;-73
2020/12/23 07:33:12;;;;;;;6.72;6.10;;;12.40;90.60;;;;;;5138240;27;20050;-74
2020/12/23 07:35:38;;;;;;;7.03;6.32;;;12.50;90.60;;;;;;5138227;27;20065;-73
2020/12/23 07:38:07;;;;;;;6.72;5.50;;;12.50;90.60;;;;;;5156565;27;20026;-74
2020/12/23 07:40:34;;;;;;;6.07;5.30;;;12.50;90.60;;;;;;5156969;27;20031;-73
2020/12/23 07:43:00;;;;;;;5.75;5.25;;;12.50;90.70;;;;;;5156333;27;20390;-73
2020/12/23 07:45:28;;;;;;;4.95;4.53;;;12.50;90.70;;;;;;5137432;27;20034;-73
2020/12/23 07:48:02;;;;;;;6.35;5.10;;;12.50;90.70;;;;;;5137939;27;20377;-73
2020/12/23 07:50:36;;;;;;;6.40;5.07;;;12.60;90.70;;;;;;5156207;27;20086;-73
2020/12/23 07:53:19;;;;;;;5.38;4.10;;;12.50;90.70;;;;;;5137565;27;20044;-73
2020/12/23 07:55:49;;;;;;;4.70;3.95;;;12.60;90.80;;;;;;5137746;27;20039;-74
2020/12/23 07:58:15;;;;;;;4.70;4.13;;;12.60;90.70;;;;;;5156091;27;20101;-73
2020/12/23 08:00:44;;;;;;;4.70;4.30;;;12.60;90.70;;;;;;5137377;27;20022;-73
2020/12/23 08:03:11;;;;;;;4.45;4.05;;;12.70;90.80;;;;;;5137435;27;20103;-74
2020/12/23 08:05:37;;;;;;;4.38;3.97;;;12.60;90.80;;;;;;5138144;27;20427;-73
2020/12/23 08:08:06;;;;;;;4.97;4.47;;;12.70;90.80;;;;;;5137262;27;20027;-74
2020/12/23 08:10:32;;;;;;;4.72;4.22;;;12.60;90.80;;;;;;5137367;27;20031;-73
2020/12/23 08:13:01;;;;;;;4.32;3.92;;;12.70;90.90;;;;;;5137189;27;20038;-73
2020/12/23 08:15:27;;;;;;;4.85;4.07;;;12.70;90.90;;;;;;5155805;27;20039;-73
2020/12/23 08:18:06;;;;;;;4.78;4.28;;;12.70;90.90;;;;;;5155631;27;20023;-73
2020/12/23 08:20:34;;;;;;;4.95;4.43;;;12.70;90.90;;;;;;5137297;27;20113;-73
2020/12/23 08:23:00;;;;;;;4.68;4.18;;;12.70;90.90;;;;;;5137051;27;20035;-73
2020/12/23 08:25:27;;;;;;;4.53;4.13;;;12.70;90.90;;;;;;5155638;27;20035;-73
2020/12/23 08:27:58;;;;;;;4.50;4.10;;;12.70;90.90;;;;;;5155590;27;20023;-73
2020/12/23 08:30:28;;;;;;;4.82;4.28;;;12.70;90.90;;;;;;5136866;27;20022;-73
2020/12/23 08:33:00;;;;;;;5.05;4.55;;;12.70;90.90;;;;;;5136895;27;20026;-73
2020/12/23 08:35:34;;;;;;;6.32;4.70;;;12.80;91.00;;;;;;5155602;27;20039;-75
2020/12/23 08:37:59;;;;;;;4.50;4.10;;;12.70;91.00;;;;;;5155316;27;20151;-73
2020/12/23 08:40:25;;;;;;;4.43;4.00;;;12.70;91.00;;;;;;5136733;27;20118;-73
2020/12/23 08:42:58;;;;;;;4.32;3.92;;;12.70;91.00;;;;;;5136784;27;20553;-74
2020/12/23 08:45:29;;;;;;;4.75;3.75;;;12.70;91.00;;;;;;5136736;27;20049;-74
2020/12/23 08:47:56;;;;;;;4.00;3.65;;;12.70;91.00;;;;;;5155229;27;20054;-74
2020/12/23 08:50:27;;;;;;;4.03;3.72;;;12.70;91.10;;;;;;5136794;27;20473;-73
2020/12/23 08:52:54;;;;;;;4.00;3.70;;;12.70;91.10;;;;;;5155024;27;20461;-71
2020/12/23 08:55:23;;;;;;;3.55;3.25;;;12.70;91.10;;;;;;5136524;27;20046;-73
2020/12/23 08:58:08;;;;;;;3.60;3.30;;;12.70;91.10;;;;;;5154508;27;20106;-73
2020/12/23 09:00:34;;;;;;;4.28;3.47;;;12.80;91.10;;;;;;5154882;27;20054;-73
2020/12/23 09:03:01;;;;;;;3.47;3.17;;;12.80;91.10;;;;;;5136261;27;20096;-73
2020/12/23 09:05:30;;;;;;;3.90;3.50;;;12.70;91.00;;;;;;5136368;27;20105;-73
2020/12/23 09:08:11;;;;;;;4.05;3.28;;;12.80;91.10;;;;;;5154612;27;20025;-73
2020/12/23 09:10:39;;;;;;;3.38;3.08;;;12.80;91.10;;;;;;5136198;27;20036;-73
2020/12/23 09:13:07;;;;;;;3.35;3.05;;;12.80;91.00;;;;;;5136122;27;20022;-74
2020/12/23 09:15:33;;;;;;;3.38;3.08;;;12.80;91.00;;;;;;5136207;27;20034;-73
2020/12/23 09:18:25;;;;;;;3.65;2.97;;;12.80;91.00;;;;;;5155003;27;20023;-73
2020/12/23 09:20:59;;;;;;;3.67;3.10;;;12.80;91.00;;;;;;5133129;27;20035;-74
2020/12/23 09:23:25;;;;;;;4.97;3.13;;;12.80;91.00;;;;;;5154732;27;20027;-74
2020/12/23 09:25:51;;;;;;;3.00;2.70;;;12.80;91.00;;;;;;5135924;27;20023;-75
2020/12/23 09:28:16;;;;;;;3.10;2.80;;;12.80;91.10;;;;;;5154478;27;20068;-74
2020/12/23 09:30:42;;;;;;;2.60;2.40;;;12.80;91.00;;;;;;5135893;27;20033;-74
2020/12/23 09:33:16;;;;;;;2.83;2.53;;;12.90;91.10;;;;;;5135885;27;20540;-74
2020/12/23 09:35:43;;;;;;;4.65;4.30;;;12.80;91.10;;;;;;5136410;27;20395;-75
2020/12/23 09:38:14;;;;;;;6.97;6.28;;;12.90;91.10;;;;;;5135997;27;20022;-74
2020/12/23 09:40:47;;;;;;;8.35;5.47;;;12.90;91.10;;;;;;5135778;27;20113;-74
2020/12/23 09:43:18;;;;;;;8.93;5.93;;;12.90;91.10;;;;;;5154302;27;20480;-74
2020/12/23 09:45:47;;;;;;;4.22;3.65;;;12.90;91.10;;;;;;5154501;27;20019;-74
2020/12/23 09:48:14;;;;;;;3.38;2.92;;;12.90;91.30;;;;;;5136153;27;20129;-75
2020/12/23 09:50:40;;;;;;;2.83;2.63;;;13.00;91.10;;;;;;5135711;27;20139;-75
2020/12/23 09:53:06;;;;;;;2.35;2.15;;;12.90;91.00;;;;;;5154132;27;20035;-74
2020/12/23 09:55:32;;;;;;;2.10;1.90;;;12.90;91.00;;;;;;5136094;27;20062;-75
2020/12/23 09:57:58;;;;;;;1.90;1.80;;;13.00;91.00;;;;;;5135623;27;20034;-75
2020/12/23 10:00:24;;;;;;;2.03;1.90;;;13.00;91.00;;;;;;5135662;27;20058;-75
2020/12/23 10:02:50;;;;;;;2.13;2.00;;;12.90;91.00;;;;;;5135694;27;20118;-74
2020/12/23 10:05:16;;;;;;;2.15;1.95;;;13.00;91.00;;;;;;5135476;27;20034;-74
2020/12/23 10:07:41;;;;;;;2.58;2.00;;;13.00;91.00;;;;;;5155763;27;20370;-73
2020/12/23 10:10:07;;;;;;;2.20;2.00;;;13.00;91.00;;;;;;5158036;27;20022;-74
2020/12/23 10:12:33;;;;;;;2.03;1.85;;;13.00;91.00;;;;;;5158761;27;20034;-74
2020/12/23 10:14:59;;;;;;;2.00;1.73;;;13.00;91.00;;;;;;5139582;27;20161;-74
2020/12/23 10:17:25;;;;;;;2.30;1.98;;;13.00;91.00;;;;;;5158281;27;20110;-75
2020/12/23 10:19:51;;;;;;;2.53;1.92;;;13.00;91.00;;;;;;5139291;27;20023;-74
2020/12/23 10:22:16;;;;;;;2.17;1.98;;;13.00;91.00;;;;;;5139004;27;20038;-74
2020/12/23 10:24:42;;;;;;;2.35;2.15;;;13.10;91.00;;;;;;5158218;27;20026;-74
2020/12/23 10:27:08;;;;;;;2.28;2.08;;;13.10;91.00;;;;;;5139086;27;20026;-74
2020/12/23 10:29:34;;;;;;;2.65;2.10;;;13.10;90.90;;;;;;5157809;27;20019;-74
2020/12/23 10:31:59;;;;;;;2.17;1.98;;;13.10;90.90;;;;;;5158221;27;20033;-74
2020/12/23 10:34:25;;;;;;;2.35;2.15;;;13.10;90.90;;;;;;5157689;27;20445;-74
2020/12/23 10:36:51;;;;;;;2.15;2.00;;;13.10;90.90;;;;;;5157966;27;20036;-75
2020/12/23 10:39:20;;;;;;;2.10;1.90;;;13.20;90.90;;;;;;5138985;27;20071;-75
2020/12/23 10:41:46;;;;;;;2.20;2.00;;;13.20;90.90;;;;;;5139155;27;20099;-74
2020/12/23 10:44:12;;;;;;;2.55;2.20;;;13.20;90.90;;;;;;5157397;27;20034;-74
2020/12/23 10:46:38;;;;;;;2.53;2.33;;;13.20;90.90;;;;;;5157467;27;20080;-74
2020/12/23 10:49:05;;;;;;;2.42;2.20;;;13.20;90.90;;;;;;5138921;27;20027;-75
2020/12/23 10:51:30;;;;;;;2.60;1.95;;;13.20;90.90;;;;;;5157596;27;20073;-75
2020/12/23 10:53:56;;;;;;;2.78;2.38;;;13.20;90.90;;;;;;5138410;27;20046;-76
2020/12/23 10:56:22;;;;;;;2.60;2.40;;;13.30;90.90;;;;;;5138858;27;20060;-75
2020/12/23 10:58:47;;;;;;;2.13;2.00;;;13.30;90.90;;;;;;5157504;27;20071;-75
2020/12/23 11:01:20;;;;;;;2.95;2.65;;;13.30;90.90;;;;;;5138565;27;20075;-74
2020/12/23 11:03:46;;;;;;;2.38;2.17;;;13.30;90.90;;;;;;5157234;27;20035;-74
2020/12/23 11:06:14;;;;;;;2.50;2.30;;;13.30;90.90;;;;;;5138550;27;20457;-74
2020/12/23 11:08:40;;;;;;;3.03;2.30;;;13.30;90.90;;;;;;5138419;27;20023;-75
2020/12/23 11:11:05;;;;;;;3.28;2.30;;;13.30;90.90;;;;;;5138451;27;20595;-74
2020/12/23 11:13:31;;;;;;;2.75;2.20;;;13.20;90.90;;;;;;5157077;27;20062;-74
2020/12/23 11:15:57;;;;;;;3.67;2.20;;;13.20;90.90;;;;;;5138400;27;20505;-74
2020/12/23 11:18:22;;;;;;;2.78;2.42;;;13.20;90.90;;;;;;5157244;27;20026;-74
2020/12/23 11:20:48;;;;;;;2.88;2.30;;;13.20;90.90;;;;;;5156296;27;20044;-74
2020/12/23 11:23:26;;;;;;;2.83;2.30;;;13.20;90.90;;;;;;5138546;27;20113;-74
2020/12/23 11:25:52;;;;;;;4.03;2.28;;;13.20;90.90;;;;;;5138261;27;20041;-74
2020/12/23 11:28:18;;;;;;;3.35;2.13;;;13.20;90.90;;;;;;5156765;27;20007;-74
2020/12/23 11:30:44;;;;;;;2.50;2.28;;;13.20;91.00;;;;;;5138331;27;20102;-74
2020/12/23 11:33:10;;;;;;;3.20;2.08;;;13.10;90.90;;;;;;5137947;27;20024;-75
2020/12/23 11:35:35;;;;;;;2.70;2.30;;;13.10;90.90;;;;;;5157161;27;20030;-75
2020/12/23 11:38:01;;;;;;;3.00;1.92;;;13.10;91.00;;;;;;5138129;27;20019;-75
2020/12/23 11:40:27;;;;;;;2.45;2.20;;;13.10;91.00;;;;;;5138156;27;20022;-74
2020/12/23 11:42:52;;;;;;;2.38;2.17;;;13.10;91.00;;;;;;5156583;27;20121;-75
2020/12/23 11:45:18;;;;;;;2.53;2.28;;;13.10;91.00;;;;;;5137888;27;20011;-75
2020/12/23 11:47:44;;;;;;;2.30;2.10;;;13.10;91.00;;;;;;5137948;27;20493;-75
2020/12/23 11:50:10;;;;;;;2.38;2.20;;;13.10;91.00;;;;;;5137790;27;20015;-76
2020/12/23 11:52:36;;;;;;;2.47;2.17;;;13.10;91.00;;;;;;5137742;27;20023;-77
2020/12/23 11:55:01;;;;;;;11.43;2.40;;;13.10;91.10;;;;;;5137852;27;20371;-75
2020/12/23 11:57:27;;;;;;;2.95;2.65;;;13.10;91.10;;;;;;5137723;27;20018;-76
2020/12/23 11:59:53;;;;;;;2.50;2.30;;;13.10;91.10;;;;;;5137394;27;20022;-76
2020/12/23 12:02:19;;;;;;;2.60;2.30;;;13.10;91.10;;;;;;5137469;27;20030;-75
2020/12/23 12:04:44;;;;;;;2.88;2.30;;;13.10;91.10;;;;;;5155962;27;20047;-75
2020/12/23 12:07:10;;;;;;;2.28;2.03;;;13.10;91.10;;;;;;5155899;27;20018;-75
2020/12/23 12:09:36;;;;;;;2.42;2.22;;;13.10;91.10;;;;;;5155908;27;20049;-75
2020/12/23 12:12:03;;;;;;;2.42;2.22;;;13.10;91.10;;;;;;5137345;27;20023;-76
2020/12/23 12:14:29;;;;;;;2.38;2.17;;;13.00;91.10;;;;;;5155988;27;20110;-75
2020/12/23 12:16:55;;;;;;;3.45;2.10;;;13.00;91.20;;;;;;5155949;27;20466;-75
2020/12/23 12:19:21;;;;;;;3.22;2.22;;;13.00;91.20;;;;;;5137077;27;20074;-75
2020/12/23 12:21:46;;;;;;;2.22;2.03;;;13.00;91.20;;;;;;5136864;27;20041;-76
2020/12/23 12:24:12;;;;;;;2.30;2.10;;;13.00;91.20;;;;;;5137161;27;20030;-75
2020/12/23 12:26:38;;;;;;;3.47;2.00;;;13.00;91.20;;;;;;5155480;27;20019;-75
2020/12/23 12:29:04;;;;;;;2.22;2.03;;;13.10;91.20;;;;;;5155472;27;20050;-75
2020/12/23 12:31:30;;;;;;;2.10;2.00;;;13.10;91.20;;;;;;5135844;27;20019;-75
2020/12/23 12:33:56;;;;;;;2.28;2.00;;;13.10;91.20;;;;;;5155179;27;20465;-75
2020/12/23 12:36:24;;;;;;;2.20;2.00;;;13.10;91.20;;;;;;5136532;27;20039;-75
2020/12/23 12:38:50;;;;;;;3.92;1.88;;;13.10;91.20;;;;;;5136486;27;20118;-75
2020/12/23 12:41:26;;;;;;;1.90;1.80;;;13.10;91.20;;;;;;5136448;27;20030;-75